PHSCH EHSE-EHLE
Flight info
| Callsign | PHSCH |
|---|---|
| Flight time | 0h 22m |
| Altitude | 13000 |
| Route | PESER DCT KUDAD DCT LARAS DCT LEKKO DCT PAM DCT LILSI |
| Aircraft | PC12/L-SDFGRWY/S |
Departure
| Time | 2026-04-28 18:06 |
|---|---|
| Airport | Breda International Airport (EHSE) |
Arrival
| Time | 2026-04-28 18:28 |
|---|---|
| Airport | Lelystad Airport (EHLE) |
| Time | Latitude | Longitude | Altitude | Speed | Heading |
|---|---|---|---|---|---|
| 2026-04-28 17:56 | 51.55523 | 4.54991 | 36 ft | 0 kts | 37° |
| 2026-04-28 18:03 | 51.55514 | 4.54989 | 36 ft | 2 kts | 346° |
| 2026-04-28 18:03 | 51.55499 | 4.54996 | 36 ft | 2 kts | 339° |
| 2026-04-28 18:03 | 51.55488 | 4.54988 | 36 ft | 0 kts | 57° |
| 2026-04-28 18:04 | 51.55493 | 4.55003 | 36 ft | 1 kts | 94° |
| 2026-04-28 18:04 | 51.55466 | 4.55008 | 35 ft | 8 kts | 202° |
| 2026-04-28 18:04 | 51.55433 | 4.54897 | 36 ft | 10 kts | 249° |
| 2026-04-28 18:04 | 51.55408 | 4.54809 | 37 ft | 8 kts | 245° |
| 2026-04-28 18:05 | 51.55379 | 4.54786 | 37 ft | 5 kts | 155° |
| 2026-04-28 18:05 | 51.55363 | 4.54797 | 37 ft | 4 kts | 153° |
| 2026-04-28 18:05 | 51.55365 | 4.54839 | 36 ft | 1 kts | 68° |
| 2026-04-28 18:05 | 51.55443 | 4.55124 | 35 ft | 58 kts | 66° |
| 2026-04-28 18:06 | 51.55663 | 4.55853 | 268 ft | 77 kts | 59° |
| 2026-04-28 18:06 | 51.55987 | 4.56606 | 666 ft | 88 kts | 58° |
| 2026-04-28 18:06 | 51.56383 | 4.57580 | 958 ft | 120 kts | 57° |
| 2026-04-28 18:06 | 51.56819 | 4.58783 | 1570 ft | 133 kts | 58° |
| 2026-04-28 18:07 | 51.57438 | 4.60122 | 1748 ft | 170 kts | 45° |
| 2026-04-28 18:07 | 51.58665 | 4.60627 | 1887 ft | 202 kts | 358° |
| 2026-04-28 18:07 | 51.59995 | 4.59954 | 2025 ft | 199 kts | 347° |
| 2026-04-28 18:07 | 51.61341 | 4.59187 | 2166 ft | 211 kts | 349° |
| 2026-04-28 18:08 | 51.62775 | 4.58519 | 2324 ft | 218 kts | 353° |
| 2026-04-28 18:08 | 51.64242 | 4.57881 | 2533 ft | 218 kts | 352° |
| 2026-04-28 18:08 | 51.65707 | 4.57372 | 2793 ft | 212 kts | 2° |
| 2026-04-28 18:08 | 51.67155 | 4.57468 | 3044 ft | 207 kts | 16° |
| 2026-04-28 18:09 | 51.68498 | 4.58106 | 3294 ft | 202 kts | 28° |
| 2026-04-28 18:09 | 51.69773 | 4.59103 | 3571 ft | 202 kts | 31° |
| 2026-04-28 18:09 | 51.71034 | 4.60071 | 3822 ft | 204 kts | 30° |
| 2026-04-28 18:09 | 51.72319 | 4.61060 | 4025 ft | 207 kts | 31° |
| 2026-04-28 18:10 | 51.73645 | 4.62095 | 4033 ft | 216 kts | 30° |
| 2026-04-28 18:10 | 51.75002 | 4.63151 | 4038 ft | 216 kts | 30° |
| 2026-04-28 18:10 | 51.76359 | 4.64200 | 4041 ft | 215 kts | 30° |
| 2026-04-28 18:10 | 51.77708 | 4.65247 | 4044 ft | 215 kts | 31° |
| 2026-04-28 18:11 | 51.79045 | 4.66290 | 4168 ft | 213 kts | 31° |
| 2026-04-28 18:11 | 51.80398 | 4.67347 | 4217 ft | 219 kts | 31° |
| 2026-04-28 18:11 | 51.81774 | 4.68418 | 4223 ft | 220 kts | 31° |
| 2026-04-28 18:11 | 51.83160 | 4.69499 | 4212 ft | 222 kts | 30° |
| 2026-04-28 18:12 | 51.84551 | 4.70585 | 4214 ft | 222 kts | 30° |
| 2026-04-28 18:12 | 51.85946 | 4.71673 | 4215 ft | 222 kts | 31° |
| 2026-04-28 18:12 | 51.87322 | 4.72747 | 4214 ft | 222 kts | 31° |
| 2026-04-28 18:12 | 51.88717 | 4.73837 | 4215 ft | 222 kts | 30° |
| 2026-04-28 18:13 | 51.90110 | 4.74926 | 4216 ft | 223 kts | 30° |
| 2026-04-28 18:13 | 51.91507 | 4.76020 | 4220 ft | 223 kts | 31° |
| 2026-04-28 18:13 | 51.92902 | 4.77112 | 4220 ft | 222 kts | 31° |
| 2026-04-28 18:13 | 51.94296 | 4.78203 | 4221 ft | 222 kts | 30° |
| 2026-04-28 18:14 | 51.95653 | 4.79268 | 4212 ft | 223 kts | 31° |
| 2026-04-28 18:14 | 51.97054 | 4.80368 | 4212 ft | 224 kts | 31° |
| 2026-04-28 18:14 | 51.98461 | 4.81473 | 4214 ft | 224 kts | 30° |
| 2026-04-28 18:14 | 51.99867 | 4.82577 | 4221 ft | 224 kts | 30° |
| 2026-04-28 18:15 | 52.01269 | 4.83679 | 4222 ft | 224 kts | 30° |
| 2026-04-28 18:15 | 52.02668 | 4.84782 | 4222 ft | 223 kts | 30° |
| 2026-04-28 18:15 | 52.04063 | 4.85881 | 4227 ft | 223 kts | 30° |
| 2026-04-28 18:15 | 52.05451 | 4.87010 | 4223 ft | 221 kts | 37° |
| 2026-04-28 18:16 | 52.06459 | 4.88815 | 4227 ft | 215 kts | 59° |
| 2026-04-28 18:16 | 52.07217 | 4.90897 | 4226 ft | 214 kts | 62° |
| 2026-04-28 18:16 | 52.07956 | 4.93006 | 4231 ft | 215 kts | 63° |
| 2026-04-28 18:16 | 52.08695 | 4.95129 | 4236 ft | 216 kts | 62° |
| 2026-04-28 18:17 | 52.09424 | 4.97250 | 4239 ft | 215 kts | 62° |
| 2026-04-28 18:17 | 52.10157 | 4.99380 | 4238 ft | 216 kts | 62° |
| 2026-04-28 18:17 | 52.10898 | 5.01522 | 4240 ft | 217 kts | 63° |
| 2026-04-28 18:17 | 52.11625 | 5.03630 | 4242 ft | 216 kts | 62° |
| 2026-04-28 18:18 | 52.12359 | 5.05780 | 4242 ft | 217 kts | 63° |
| 2026-04-28 18:18 | 52.13092 | 5.07931 | 4238 ft | 217 kts | 62° |
| 2026-04-28 18:18 | 52.13824 | 5.10070 | 4239 ft | 216 kts | 63° |
| 2026-04-28 18:18 | 52.14463 | 5.11353 | 4226 ft | 219 kts | 42° |
| 2026-04-28 18:19 | 52.16319 | 5.12775 | 4230 ft | 224 kts | 27° |
| 2026-04-28 18:19 | 52.17688 | 5.13963 | 4229 ft | 222 kts | 36° |
| 2026-04-28 18:19 | 52.18950 | 5.15387 | 4237 ft | 220 kts | 40° |
| 2026-04-28 18:19 | 52.20197 | 5.16832 | 4239 ft | 221 kts | 38° |
| 2026-04-28 18:20 | 52.21466 | 5.18245 | 4239 ft | 221 kts | 38° |
| 2026-04-28 18:20 | 52.22741 | 5.19651 | 4239 ft | 221 kts | 38° |
| 2026-04-28 18:20 | 52.24014 | 5.21066 | 4179 ft | 223 kts | 39° |
| 2026-04-28 18:20 | 52.25304 | 5.22505 | 4075 ft | 224 kts | 38° |
| 2026-04-28 18:21 | 52.26600 | 5.23949 | 3770 ft | 228 kts | 38° |
| 2026-04-28 18:21 | 52.27871 | 5.25364 | 3363 ft | 216 kts | 38° |
| 2026-04-28 18:21 | 52.29110 | 5.26746 | 3058 ft | 212 kts | 38° |
| 2026-04-28 18:21 | 52.30262 | 5.28028 | 2835 ft | 193 kts | 38° |
| 2026-04-28 18:22 | 52.31349 | 5.29244 | 2600 ft | 186 kts | 38° |
| 2026-04-28 18:22 | 52.32409 | 5.30430 | 2358 ft | 185 kts | 38° |
| 2026-04-28 18:22 | 52.33494 | 5.31566 | 2115 ft | 185 kts | 33° |
| 2026-04-28 18:22 | 52.34545 | 5.32560 | 1880 ft | 165 kts | 38° |
| 2026-04-28 18:23 | 52.35337 | 5.33728 | 1707 ft | 145 kts | 49° |
| 2026-04-28 18:23 | 52.36009 | 5.34861 | 1688 ft | 132 kts | 49° |
| 2026-04-28 18:23 | 52.36618 | 5.35924 | 1694 ft | 128 kts | 51° |
| 2026-04-28 18:23 | 52.37223 | 5.37002 | 1700 ft | 129 kts | 51° |
| 2026-04-28 18:24 | 52.37832 | 5.38087 | 1712 ft | 130 kts | 50° |
| 2026-04-28 18:24 | 52.38040 | 5.38460 | 1704 ft | 131 kts | 50° |
| 2026-04-28 18:24 | 52.39067 | 5.40292 | 1651 ft | 132 kts | 51° |
| 2026-04-28 18:24 | 52.39688 | 5.41401 | 1473 ft | 126 kts | 50° |
| 2026-04-28 18:25 | 52.40207 | 5.42321 | 1303 ft | 100 kts | 51° |
| 2026-04-28 18:25 | 52.40649 | 5.43105 | 1167 ft | 87 kts | 51° |
| 2026-04-28 18:25 | 52.41031 | 5.43782 | 1061 ft | 78 kts | 49° |
| 2026-04-28 18:26 | 52.41769 | 5.45102 | 860 ft | 78 kts | 50° |
| 2026-04-28 18:26 | 52.42149 | 5.45777 | 770 ft | 83 kts | 50° |
| 2026-04-28 18:26 | 52.42553 | 5.46471 | 671 ft | 84 kts | 50° |
| 2026-04-28 18:26 | 52.42813 | 5.46941 | 554 ft | 87 kts | 49° |
| 2026-04-28 18:27 | 52.43373 | 5.47921 | 404 ft | 91 kts | 51° |
| 2026-04-28 18:27 | 52.43661 | 5.48440 | 353 ft | 93 kts | 52° |
| 2026-04-28 18:27 | 52.44085 | 5.49221 | 204 ft | 88 kts | 51° |
| 2026-04-28 18:27 | 52.44487 | 5.49944 | 88 ft | 85 kts | 51° |
| 2026-04-28 18:28 | 52.44984 | 5.50838 | -9 ft | 73 kts | 50° |
| 2026-04-28 18:28 | 52.45186 | 5.51214 | -7 ft | 59 kts | 47° |
| 2026-04-28 18:28 | 52.45419 | 5.51630 | -9 ft | 34 kts | 47° |
| 2026-04-28 18:28 | 52.45487 | 5.51786 | -9 ft | 14 kts | 100° |
| 2026-04-28 18:29 | 52.45444 | 5.51867 | -9 ft | 6 kts | 138° |
| 2026-04-28 18:29 | 52.45403 | 5.51931 | -9 ft | 1 kts | 141° |
| 2026-04-28 18:29 | 52.45399 | 5.51936 | -9 ft | 2 kts | 141° |
| 2026-04-28 18:30 | 52.45393 | 5.51944 | -9 ft | 0 kts | 137° |
| 2026-04-28 18:30 | 52.45400 | 5.51987 | -9 ft | 10 kts | 47° |
| 2026-04-28 18:30 | 52.45479 | 5.52129 | -9 ft | 19 kts | 49° |
| 2026-04-28 18:31 | 52.45538 | 5.52234 | -9 ft | 9 kts | 63° |
| 2026-04-28 18:31 | 52.45525 | 5.52295 | -9 ft | 7 kts | 66° |
| 2026-04-28 18:31 | 52.45539 | 5.52321 | -9 ft | 0 kts | 49° |